Hauptseite
METAR-TAF:

METAR-TAF

Flughäfen :

Dijon, Frankreich

Flughafen Dijon-Bourgogne

Breite: 47-16N, Länge: 005-05E, Höhe: 222 m

Beobachtung

Neuester Wetterbericht von vor 25 Minuten, um 05:30 UTC
Wind 3 kt aus Nord/Nordwest, variierte zwischen West/Nordwest und Nordost
Temperatur 9°C
Luftfeuchtigkeit 76%
Luftdruck 1021 hPa
Sichtweite 10 km oder mehr
keine Wolken unter 1500 m und keine Kumulonimbus oder Gewitterwolken

METAR: LFSD 260530Z AUTO 34003KT 300V050 CAVOK 09/05 Q1021

Zeit: 07:55 (05:55 UTC)


TAF: fehlend

Wetterbeobachtungen und Prognosen von mehr als 4000 Flughäfen (METAR und TAF Bericht).

Die verfügbaren Stationen werden durch gelbe und rote Markierungen auf der Karte dargestellt.

Führen Sie die Maus auf sie, um den Namen der Station zu sehen.

Darauf klicken, um die Beobachtung von Wetterbeobachtungen und Prognosen zu sehen.

Um die Karte zu ändern : klicken Sie auf den grünen Tasten mit einem schwarzen Kreuz Zum Vergrößern, auf den grünen Button mit einem Gedankenstrich zu verkleinern, oder auf die grünen Pfeile für benachbarte Karten.


METAR-TAF: